createdAt,value
2023-02-11T17:45:55.148Z,1032.28
2023-02-11T17:46:54.835Z,1032.30
2023-02-11T17:47:54.784Z,1032.26
2023-02-11T17:48:54.721Z,1032.25
2023-02-11T17:49:54.684Z,1032.23
2023-02-11T17:50:54.636Z,1032.24
2023-02-11T17:51:54.572Z,1032.23
2023-02-11T17:52:54.523Z,1032.24
2023-02-11T17:53:54.474Z,1032.30
2023-02-11T17:54:54.441Z,1032.26
2023-02-11T17:55:54.378Z,1032.31
2023-02-11T17:56:57.761Z,1032.30
2023-02-11T17:57:54.296Z,1032.34
2023-02-11T17:58:54.240Z,1032.36
2023-02-11T17:59:54.192Z,1032.40
2023-02-11T18:02:19.919Z,1032.48
2023-02-11T18:03:19.854Z,1032.51
2023-02-11T18:04:19.931Z,1032.55
2023-02-11T18:05:19.762Z,1032.58
2023-02-11T18:06:19.721Z,1032.59
2023-02-11T18:07:19.693Z,1032.65
2023-02-11T18:08:19.628Z,1032.69
2023-02-11T18:09:19.570Z,1032.69
2023-02-11T18:10:19.682Z,1032.69
2023-02-11T18:11:19.488Z,1032.72
2023-02-11T18:12:19.669Z,1032.76
2023-02-11T18:13:19.415Z,1032.79
2023-02-11T18:14:19.353Z,1032.80
2023-02-11T18:15:19.306Z,1032.79
2023-02-11T18:16:19.329Z,1032.81
2023-02-11T18:17:19.209Z,1032.75
2023-02-11T18:18:19.184Z,1032.80
2023-02-11T18:19:56.114Z,1032.77
2023-02-11T18:20:56.001Z,1032.80
2023-02-11T18:21:55.958Z,1032.83
2023-02-11T18:22:55.906Z,1032.86
2023-02-11T18:23:55.861Z,1032.87
2023-02-11T18:24:55.814Z,1032.89
2023-02-11T18:25:55.767Z,1032.91
2023-02-11T18:26:55.722Z,1032.87
2023-02-11T18:27:55.685Z,1032.85
2023-02-11T18:28:55.631Z,1032.88
2023-02-11T18:29:55.636Z,1032.83
2023-02-11T18:30:55.557Z,1032.81
2023-02-11T18:31:55.600Z,1032.84
2023-02-11T18:32:55.465Z,1032.80
2023-02-11T18:33:55.430Z,1032.80
2023-02-11T18:34:55.364Z,1032.79
2023-02-11T18:35:55.337Z,1032.75
2023-02-11T18:36:55.273Z,1032.81
2023-02-11T18:37:55.237Z,1032.81
2023-02-11T18:38:55.194Z,1032.84
2023-02-11T18:39:55.200Z,1032.83
2023-02-11T18:40:55.102Z,1032.88
2023-02-11T18:41:55.060Z,1032.85
2023-02-11T18:42:55.008Z,1032.86
2023-02-11T18:43:54.966Z,1032.88
2023-02-11T18:44:54.932Z,1032.84
2023-02-11T18:45:55.237Z,1032.85
2023-02-11T18:46:54.832Z,1032.85
2023-02-11T18:47:54.784Z,1032.87
2023-02-11T18:48:56.152Z,1032.87
2023-02-11T18:50:54.670Z,1032.91
2023-02-11T18:51:54.615Z,1032.92
2023-02-11T18:52:54.571Z,1032.96
2023-02-11T18:53:54.515Z,1032.96
2023-02-11T18:54:54.480Z,1032.97
2023-02-11T18:55:55.134Z,1032.98
2023-02-11T18:56:54.384Z,1032.99
2023-02-11T18:57:54.339Z,1033.02
2023-02-11T18:58:54.301Z,1033.04
2023-02-11T18:59:54.344Z,1033.05
2023-02-11T19:00:54.264Z,1033.12
2023-02-11T19:01:54.487Z,1033.11
2023-02-11T19:02:54.122Z,1033.10
2023-02-11T19:03:54.068Z,1033.12
2023-02-11T19:04:54.026Z,1033.09
2023-02-11T19:05:54.344Z,1033.09
2023-02-11T19:06:53.962Z,1033.10
2023-02-11T19:07:53.893Z,1033.14
2023-02-11T19:08:53.876Z,1033.12
2023-02-11T19:10:53.831Z,1033.15
2023-02-11T19:11:53.714Z,1033.12
2023-02-11T19:12:53.671Z,1033.11
2023-02-11T19:13:53.622Z,1033.11
2023-02-11T19:14:53.581Z,1033.11
2023-02-11T19:15:53.893Z,1033.15
2023-02-11T19:16:53.632Z,1033.14
2023-02-11T19:17:53.448Z,1033.14
2023-02-11T19:18:53.396Z,1033.21
2023-02-11T19:19:53.475Z,1033.24
2023-02-11T19:20:53.308Z,1033.28
2023-02-11T19:21:53.294Z,1033.27
2023-02-11T19:22:53.235Z,1033.24
2023-02-11T19:23:53.180Z,1033.26
2023-02-11T19:24:53.132Z,1033.26
2023-02-11T19:25:53.387Z,1033.28
2023-02-11T19:26:53.044Z,1033.25
2023-02-11T19:27:53.001Z,1033.30
2023-02-11T19:28:52.950Z,1033.32
2023-02-11T19:29:52.909Z,1033.26
2023-02-11T19:30:52.960Z,1033.27
2023-02-11T19:31:53.070Z,1033.31
2023-02-11T19:32:52.785Z,1033.30
2023-02-11T19:33:52.728Z,1033.30
2023-02-11T19:34:52.681Z,1033.34
2023-02-11T19:35:52.986Z,1033.32
2023-02-11T19:36:52.596Z,1033.31
2023-02-11T19:37:52.562Z,1033.35
2023-02-11T19:38:52.523Z,1033.33
2023-02-11T19:39:52.463Z,1033.36
2023-02-11T19:40:52.416Z,1033.38
2023-02-11T19:41:52.374Z,1033.38
2023-02-11T19:42:52.326Z,1033.43
2023-02-11T19:43:52.283Z,1033.42
2023-02-11T19:44:52.245Z,1033.44
2023-02-11T19:45:52.604Z,1033.43
2023-02-11T19:46:52.145Z,1033.41
2023-02-11T19:47:52.118Z,1033.41
2023-02-11T19:48:52.068Z,1033.47
2023-02-11T19:49:52.012Z,1033.44
2023-02-11T19:50:51.967Z,1033.50
2023-02-11T19:51:51.931Z,1033.48
2023-02-11T19:52:51.897Z,1033.50
2023-02-11T19:53:51.846Z,1033.50
2023-02-11T19:54:51.805Z,1033.50
2023-02-11T19:55:52.068Z,1033.51
2023-02-11T19:56:51.698Z,1033.51
2023-02-11T19:57:51.653Z,1033.49
2023-02-11T19:58:51.612Z,1033.50
2023-02-11T19:59:51.565Z,1033.50
2023-02-11T20:00:51.517Z,1033.53
2023-02-11T20:01:51.569Z,1033.58
2023-02-11T20:02:51.495Z,1033.61
2023-02-11T20:03:51.392Z,1033.57
2023-02-11T20:04:51.339Z,1033.60
2023-02-11T20:05:51.655Z,1033.62
2023-02-11T20:06:51.265Z,1033.64
2023-02-11T20:07:51.216Z,1033.66
2023-02-11T20:08:51.280Z,1033.66
2023-02-11T20:09:51.119Z,1033.64
2023-02-11T20:10:51.103Z,1033.66
2023-02-11T20:11:51.037Z,1033.63
2023-02-11T20:12:50.980Z,1033.66
2023-02-11T20:13:50.937Z,1033.67
2023-02-11T20:14:50.888Z,1033.69
2023-02-11T20:15:51.232Z,1033.70
2023-02-11T20:16:50.910Z,1033.70
2023-02-11T20:17:50.768Z,1033.70
2023-02-11T20:18:50.707Z,1033.68
2023-02-11T20:19:50.668Z,1033.70
2023-02-11T20:20:50.618Z,1033.66
2023-02-11T20:21:50.624Z,1033.69
2023-02-11T20:22:50.530Z,1033.66
2023-02-11T20:23:50.493Z,1033.66
2023-02-11T20:24:50.441Z,1033.65
2023-02-11T20:25:50.868Z,1033.63
2023-02-11T20:26:50.366Z,1033.61
2023-02-11T20:27:50.308Z,1033.61
2023-02-11T20:28:50.261Z,1033.64
2023-02-11T20:29:50.214Z,1033.61
2023-02-11T20:30:50.229Z,1033.63
2023-02-11T20:31:50.420Z,1033.62
2023-02-11T20:32:50.081Z,1033.65
2023-02-11T20:33:50.049Z,1033.67
2023-02-11T20:34:49.989Z,1033.71
2023-02-11T20:35:50.151Z,1033.73
2023-02-11T20:36:49.906Z,1033.69
2023-02-11T20:37:49.866Z,1033.74
2023-02-11T20:38:49.809Z,1033.76
2023-02-11T20:39:49.767Z,1033.75
2023-02-11T20:40:49.721Z,1033.78
2023-02-11T20:41:49.722Z,1033.78
2023-02-11T20:42:49.656Z,1033.78
2023-02-11T20:43:49.584Z,1033.77
2023-02-11T20:44:49.545Z,1033.81
2023-02-11T20:45:49.960Z,1033.79
2023-02-11T20:46:49.516Z,1033.83
2023-02-11T20:47:49.413Z,1033.80
2023-02-11T20:48:49.362Z,1033.83
2023-02-11T20:49:49.316Z,1033.86
2023-02-11T20:50:49.270Z,1033.83
2023-02-11T20:51:49.225Z,1033.84
2023-02-11T20:52:49.182Z,1033.90
2023-02-11T20:53:49.141Z,1033.89
2023-02-11T20:54:49.094Z,1033.90
2023-02-11T20:55:49.321Z,1033.91
2023-02-11T20:56:49.025Z,1033.97
2023-02-11T20:57:48.991Z,1033.92
2023-02-11T20:58:48.999Z,1033.97
2023-02-11T20:59:48.902Z,1033.96
2023-02-11T21:00:48.846Z,1033.97
2023-02-11T21:01:48.903Z,1034.05
2023-02-11T21:02:48.743Z,1034.05
2023-02-11T21:03:48.690Z,1034.09
2023-02-11T21:04:48.645Z,1034.10
2023-02-11T21:05:48.600Z,1034.10
2023-02-11T21:06:48.553Z,1034.14
2023-02-11T21:07:48.509Z,1034.09
2023-02-11T21:08:48.462Z,1034.11
2023-02-11T21:09:48.423Z,1034.11
2023-02-11T21:10:48.375Z,1034.13
2023-02-11T21:11:48.340Z,1034.13
2023-02-11T21:12:49.925Z,1034.16
2023-02-11T21:13:48.239Z,1034.22
2023-02-11T21:14:48.222Z,1034.18
2023-02-11T21:15:48.222Z,1034.23
2023-02-11T21:16:48.117Z,1034.23
2023-02-11T21:17:48.060Z,1034.18
2023-02-11T21:18:48.013Z,1034.20
2023-02-11T21:19:47.971Z,1034.18
2023-02-11T21:20:47.930Z,1034.15
2023-02-11T21:21:47.885Z,1034.11
2023-02-11T21:22:47.836Z,1034.13
2023-02-11T21:23:47.802Z,1034.10
2023-02-11T21:24:47.748Z,1034.08
2023-02-11T21:25:47.702Z,1034.07
2023-02-11T21:26:47.658Z,1034.06
2023-02-11T21:27:47.614Z,1034.08
2023-02-11T21:28:47.569Z,1034.12
2023-02-11T21:29:54.178Z,1034.11
2023-02-11T21:30:47.564Z,1034.07
2023-02-11T21:31:47.511Z,1034.09
2023-02-11T21:32:47.393Z,1034.05
2023-02-11T21:33:47.347Z,1034.03
2023-02-11T21:34:47.301Z,1034.02
2023-02-11T21:35:47.265Z,1034.02
2023-02-11T21:36:47.209Z,1034.00
2023-02-11T21:37:47.172Z,1033.98
2023-02-11T21:38:47.120Z,1034.00
2023-02-11T21:39:47.087Z,1034.01
2023-02-11T21:40:47.029Z,1034.01
2023-02-11T21:41:47.003Z,1034.05
2023-02-11T21:42:46.944Z,1034.05
2023-02-11T21:43:46.904Z,1034.10
2023-02-11T21:44:46.852Z,1034.09
2023-02-11T21:45:46.911Z,1034.17
2023-02-11T21:46:46.859Z,1034.20
2023-02-11T21:47:46.727Z,1034.20
2023-02-11T21:48:46.694Z,1034.21
2023-02-11T21:49:46.630Z,1034.26
2023-02-11T21:50:46.591Z,1034.23
2023-02-11T21:51:46.543Z,1034.20
2023-02-11T21:52:46.490Z,1034.21
2023-02-11T21:53:46.461Z,1034.19
2023-02-11T21:54:46.411Z,1034.21
2023-02-11T21:55:46.394Z,1034.17
2023-02-11T21:56:46.315Z,1034.20
2023-02-11T21:57:46.271Z,1034.21
2023-02-11T21:58:46.228Z,1034.23
2023-02-11T21:59:46.187Z,1034.20
2023-02-11T22:00:46.220Z,1034.18
2023-02-11T22:01:46.089Z,1034.17
2023-02-11T22:02:48.246Z,1034.19
2023-02-11T22:03:46.006Z,1034.21
2023-02-11T22:04:45.996Z,1034.25
2023-02-11T22:05:45.914Z,1034.22
2023-02-11T22:06:45.863Z,1034.27
2023-02-11T22:07:45.818Z,1034.25
2023-02-11T22:08:45.772Z,1034.26
2023-02-11T22:09:45.729Z,1034.24
2023-02-11T22:10:45.683Z,1034.23
2023-02-11T22:11:45.643Z,1034.26
2023-02-11T22:12:45.594Z,1034.19
2023-02-11T22:13:45.548Z,1034.19
